Time;durP1;ratioP1;P1;durP2;ratioP2;P2;SDS_P1;SDS_P2;PMS_P1;PMS_P2;Temp;Humidity;BMP_temperature;BMP_pressure;BME280_temperature;BME280_humidity;BME280_pressure;Samples;Min_cycle;Max_cycle;Signal;HPM_P1;HPM_P2
2021/08/22 00:00:32;;;;;;;;;;;34.20;27.40;;;;;;4341773;33;19962;-38
2021/08/22 00:02:58;;;;;;;;;;;34.20;27.40;;;;;;4342204;33;20022;-39
2021/08/22 00:05:24;;;;;;;;;;;34.10;27.40;;;;;;4341735;33;20547;-39
2021/08/22 00:07:51;;;;;;;;;;;34.10;27.40;;;;;;4341941;33;19989;-38
2021/08/22 00:10:17;;;;;;;;;;;34.10;27.40;;;;;;4341766;33;19974;-39
2021/08/22 00:12:43;;;;;;;;;;;34.10;27.40;;;;;;4341741;33;20478;-39
2021/08/22 00:15:10;;;;;;;;;;;34.10;27.40;;;;;;4341605;33;20051;-39
2021/08/22 00:17:36;;;;;;;;;;;34.10;27.50;;;;;;4341396;33;20157;-39
2021/08/22 00:20:03;;;;;;;;;;;34.00;27.70;;;;;;4341466;33;20449;-38
2021/08/22 00:22:29;;;;;;;;;;;33.90;27.80;;;;;;4341825;33;19967;-39
2021/08/22 00:24:55;;;;;;;;;;;33.80;27.80;;;;;;4341619;33;19970;-39
2021/08/22 00:27:21;;;;;;;;;;;33.60;27.60;;;;;;4355321;32;19962;-38
2021/08/22 00:29:47;;;;;;;;;;;33.40;27.50;;;;;;4358724;32;19965;-38
2021/08/22 00:32:13;;;;;;;;;;;33.40;27.70;;;;;;4358433;32;19962;-38
2021/08/22 00:34:40;;;;;;;;;;;33.30;27.70;;;;;;4358815;32;19958;-39
2021/08/22 00:37:06;;;;;;;;;;;33.10;27.70;;;;;;4358891;32;19957;-40
2021/08/22 00:39:32;;;;;;;;;;;33.10;27.90;;;;;;4344570;32;19957;-38
2021/08/22 00:41:59;;;;;;;;;;;33.00;28.00;;;;;;4344914;32;20029;-38
2021/08/22 00:44:25;;;;;;;;;;;32.90;27.90;;;;;;4344705;32;20399;-39
2021/08/22 00:46:53;;;;;;;;;;;32.90;27.90;;;;;;4359118;32;20023;-38
2021/08/22 00:49:25;;;;;;;;;;;32.80;27.90;;;;;;4358565;32;20429;-40
2021/08/22 00:51:51;;;;;;;;;;;32.80;28.50;;;;;;4345048;32;20051;-39
2021/08/22 00:54:17;;;;;;;;;;;32.70;28.10;;;;;;4358629;32;19973;-39
2021/08/22 00:56:44;;;;;;;;;;;32.70;26.80;;;;;;4358649;32;19967;-39
2021/08/22 00:59:10;;;;;;;;;;;32.70;26.60;;;;;;4358480;32;19960;-39
2021/08/22 01:01:37;;;;;;;;;;;32.80;26.40;;;;;;4344528;32;19988;-39
2021/08/22 01:04:22;;;;;;;;;;;33.00;26.60;;;;;;4344779;32;19962;-40
2021/08/22 01:07:10;;;;;;;;;;;33.10;26.80;;;;;;4340842;33;19958;-39
2021/08/22 01:09:41;;;;;;;;;;;33.20;27.00;;;;;;4341276;33;20033;-39
2021/08/22 01:12:20;;;;;;;;;;;33.30;26.70;;;;;;4328836;33;20379;-40
2021/08/22 01:14:48;;;;;;;;;;;33.40;26.50;;;;;;4341158;33;20014;-39
2021/08/22 01:17:15;;;;;;;;;;;33.50;26.40;;;;;;4340684;33;20405;-38
2021/08/22 01:19:53;;;;;;;;;;;33.50;26.40;;;;;;4329115;33;19961;-39
2021/08/22 01:22:19;;;;;;;;;;;33.60;26.60;;;;;;4328770;33;19970;-39
2021/08/22 01:24:45;;;;;;;;;;;33.60;26.50;;;;;;4328329;33;19973;-39
2021/08/22 01:27:11;;;;;;;;;;;33.60;26.40;;;;;;4328898;33;19977;-39
2021/08/22 01:29:42;;;;;;;;;;;33.50;26.50;;;;;;4316724;33;20046;-38
2021/08/22 01:32:08;;;;;;;;;;;33.40;26.70;;;;;;4338168;32;20450;-38
2021/08/22 01:34:34;;;;;;;;;;;33.30;26.60;;;;;;4330963;32;19993;-40
2021/08/22 01:37:00;;;;;;;;;;;33.20;26.20;;;;;;4355883;32;20398;-38
2021/08/22 01:39:26;;;;;;;;;;;33.10;26.10;;;;;;4331516;32;20035;-39
2021/08/22 01:41:53;;;;;;;;;;;33.10;26.10;;;;;;4343495;32;19958;-39
2021/08/22 01:44:19;;;;;;;;;;;33.00;26.10;;;;;;4331513;32;20020;-42
2021/08/22 01:46:45;;;;;;;;;;;33.00;26.20;;;;;;4332405;32;20022;-39
2021/08/22 01:49:11;;;;;;;;;;;33.00;26.30;;;;;;4344412;32;20138;-39
2021/08/22 01:51:37;;;;;;;;;;;33.00;26.30;;;;;;4333500;32;19968;-39
2021/08/22 01:54:08;;;;;;;;;;;32.90;26.30;;;;;;4360605;32;20415;-38
2021/08/22 01:56:35;;;;;;;;;;;32.90;26.40;;;;;;4328671;33;19969;-39
2021/08/22 01:59:02;;;;;;;;;;;33.00;26.50;;;;;;4328992;33;19962;-39
2021/08/22 02:01:28;;;;;;;;;;;32.90;26.40;;;;;;4328597;33;20005;-38
2021/08/22 02:03:59;;;;;;;;;;;32.90;26.50;;;;;;4329161;33;20000;-38
2021/08/22 02:06:35;;;;;;;;;;;32.90;26.60;;;;;;4317044;33;19958;-38
2021/08/22 02:09:05;;;;;;;;;;;32.90;26.60;;;;;;4328397;33;19978;-38
2021/08/22 02:11:50;;;;;;;;;;;32.80;26.60;;;;;;4328667;33;20032;-39
2021/08/22 02:14:17;;;;;;;;;;;32.80;26.50;;;;;;4316646;33;19958;-38
2021/08/22 02:16:47;;;;;;;;;;;32.80;26.50;;;;;;4316206;33;20136;-38
2021/08/22 02:19:13;;;;;;;;;;;32.90;26.50;;;;;;4328805;33;19963;-39
2021/08/22 02:21:39;;;;;;;;;;;32.90;26.50;;;;;;4328671;33;19963;-39
2021/08/22 02:24:06;;;;;;;;;;;32.90;26.50;;;;;;4316274;33;19998;-39
2021/08/22 02:26:35;;;;;;;;;;;32.90;26.40;;;;;;4317979;32;19965;-39
2021/08/22 02:29:01;;;;;;;;;;;33.00;26.40;;;;;;4346871;32;19990;-40
2021/08/22 02:31:28;;;;;;;;;;;32.90;26.40;;;;;;4360858;32;20050;-39
2021/08/22 02:33:58;;;;;;;;;;;33.00;26.40;;;;;;4360605;32;19954;-39
2021/08/22 02:36:25;;;;;;;;;;;33.00;26.30;;;;;;4360680;32;20008;-38
2021/08/22 02:38:51;;;;;;;;;;;33.10;26.30;;;;;;4360504;32;19965;-38
2021/08/22 02:41:17;;;;;;;;;;;33.10;26.20;;;;;;4360222;32;20418;-38
2021/08/22 02:43:43;;;;;;;;;;;33.10;26.20;;;;;;4359963;32;19960;-38
2021/08/22 02:46:09;;;;;;;;;;;33.20;26.10;;;;;;4360093;32;19959;-38
2021/08/22 02:48:36;;;;;;;;;;;33.20;26.10;;;;;;4360516;32;19973;-39
2021/08/22 02:51:02;;;;;;;;;;;33.30;26.00;;;;;;4360448;32;20412;-39
2021/08/22 02:53:29;;;;;;;;;;;33.30;25.80;;;;;;4360762;32;20366;-39
2021/08/22 02:55:55;;;;;;;;;;;33.30;25.70;;;;;;4360274;32;19958;-39
2021/08/22 02:58:21;;;;;;;;;;;33.40;25.60;;;;;;4360010;32;20525;-38
2021/08/22 03:00:47;;;;;;;;;;;33.40;25.40;;;;;;4360250;32;19970;-39
2021/08/22 03:03:14;;;;;;;;;;;33.50;25.30;;;;;;4346275;32;19957;-38
2021/08/22 03:05:40;;;;;;;;;;;33.60;25.20;;;;;;4360219;32;19985;-38
2021/08/22 03:08:06;;;;;;;;;;;33.70;25.10;;;;;;4360065;32;20510;-39
2021/08/22 03:10:32;;;;;;;;;;;33.80;25.00;;;;;;4360295;32;19976;-39
2021/08/22 03:12:58;;;;;;;;;;;33.90;25.00;;;;;;4345945;32;19984;-38
2021/08/22 03:15:24;;;;;;;;;;;34.00;24.90;;;;;;4360182;32;19996;-38
2021/08/22 03:17:51;;;;;;;;;;;34.10;24.80;;;;;;4359770;32;20001;-38
2021/08/22 03:20:17;;;;;;;;;;;34.30;24.80;;;;;;4359756;32;20471;-39
2021/08/22 03:22:43;;;;;;;;;;;34.40;24.70;;;;;;4359661;32;20454;-39
2021/08/22 03:25:10;;;;;;;;;;;34.50;24.70;;;;;;4359829;32;19962;-39
2021/08/22 03:27:36;;;;;;;;;;;34.70;24.70;;;;;;4359659;32;20025;-39
2021/08/22 03:30:03;;;;;;;;;;;34.70;24.40;;;;;;4359838;32;20394;-38
2021/08/22 03:32:30;;;;;;;;;;;34.80;24.30;;;;;;4359196;32;20450;-38
2021/08/22 03:34:57;;;;;;;;;;;34.90;24.20;;;;;;4359556;32;19982;-37
2021/08/22 03:37:23;;;;;;;;;;;35.00;24.10;;;;;;4359341;32;19954;-39
2021/08/22 03:39:50;;;;;;;;;;;35.10;24.10;;;;;;4359458;32;19995;-39
2021/08/22 03:42:16;;;;;;;;;;;35.20;24.10;;;;;;4359589;32;19950;-39
2021/08/22 03:44:42;;;;;;;;;;;35.40;23.90;;;;;;4359183;32;19966;-39
2021/08/22 03:47:08;;;;;;;;;;;35.50;23.70;;;;;;4359527;32;20025;-39
2021/08/22 03:49:34;;;;;;;;;;;35.60;23.60;;;;;;4359578;32;20413;-40
2021/08/22 03:52:04;;;;;;;;;;;35.80;23.60;;;;;;4359865;32;20406;-38
2021/08/22 03:54:30;;;;;;;;;;;35.90;23.30;;;;;;4359439;32;19957;-39
2021/08/22 03:56:56;;;;;;;;;;;36.10;23.30;;;;;;4359467;32;20398;-39
2021/08/22 03:59:22;;;;;;;;;;;36.30;24.30;;;;;;4357532;32;20004;-39
2021/08/22 04:01:49;;;;;;;;;;;36.30;25.30;;;;;;4359162;32;19962;-38
2021/08/22 04:04:15;;;;;;;;;;;36.40;25.00;;;;;;4358939;32;19964;-39
2021/08/22 04:06:48;;;;;;;;;;;36.50;25.10;;;;;;4357268;32;20432;-39
2021/08/22 04:09:15;;;;;;;;;;;36.60;25.10;;;;;;4359114;32;20042;-39
2021/08/22 04:11:43;;;;;;;;;;;36.80;24.90;;;;;;4358971;32;19962;-38
2021/08/22 04:14:10;;;;;;;;;;;36.90;24.80;;;;;;4358512;32;19958;-38
2021/08/22 04:16:37;;;;;;;;;;;37.10;24.90;;;;;;4360282;32;19958;-39
2021/08/22 04:19:03;;;;;;;;;;;37.10;24.70;;;;;;4359782;32;19965;-39
2021/08/22 04:21:29;;;;;;;;;;;37.10;24.70;;;;;;4373914;32;20357;-38
2021/08/22 04:23:55;;;;;;;;;;;37.20;25.10;;;;;;4373657;32;19949;-38
2021/08/22 04:26:21;;;;;;;;;;;37.30;25.40;;;;;;4373912;32;20048;-39
2021/08/22 04:28:47;;;;;;;;;;;37.40;26.00;;;;;;4373443;32;19982;-39
2021/08/22 04:31:14;;;;;;;;;;;37.50;26.40;;;;;;4369067;32;19961;-38
2021/08/22 04:33:40;;;;;;;;;;;37.50;26.80;;;;;;4358994;32;19950;-39
2021/08/22 04:36:06;;;;;;;;;;;37.50;27.50;;;;;;4358845;32;19969;-39
2021/08/22 04:38:35;;;;;;;;;;;37.40;28.70;;;;;;4358243;32;19950;-39
2021/08/22 04:41:01;;;;;;;;;;;37.20;29.40;;;;;;4358578;32;20036;-39
2021/08/22 04:43:27;;;;;;;;;;;37.10;30.10;;;;;;4358996;32;20028;-38
2021/08/22 04:45:53;;;;;;;;;;;37.10;29.90;;;;;;4358095;32;19958;-39
2021/08/22 04:48:20;;;;;;;;;;;37.10;29.60;;;;;;4358416;32;19962;-39
2021/08/22 04:50:46;;;;;;;;;;;37.30;29.40;;;;;;4358502;32;19977;-39
2021/08/22 04:53:12;;;;;;;;;;;37.40;29.00;;;;;;4358106;32;20396;-39
2021/08/22 04:55:38;;;;;;;;;;;37.60;28.60;;;;;;4358541;32;19969;-39
2021/08/22 04:58:04;;;;;;;;;;;37.60;28.40;;;;;;4344312;32;20402;-38
2021/08/22 05:00:30;;;;;;;;;;;37.60;28.00;;;;;;4358607;32;20084;-38
2021/08/22 05:02:57;;;;;;;;;;;37.60;27.60;;;;;;4358414;32;19953;-39
2021/08/22 05:05:23;;;;;;;;;;;37.30;27.80;;;;;;4358231;32;19965;-39
2021/08/22 05:07:49;;;;;;;;;;;37.00;28.20;;;;;;4358331;32;20403;-38
2021/08/22 05:10:16;;;;;;;;;;;36.60;28.50;;;;;;4358585;32;20001;-38
2021/08/22 05:12:43;;;;;;;;;;;36.30;29.00;;;;;;4344853;32;19962;-39
2021/08/22 05:15:10;;;;;;;;;;;36.00;29.20;;;;;;4358758;32;19974;-39
2021/08/22 05:17:36;;;;;;;;;;;35.80;29.40;;;;;;4358746;32;19962;-39
2021/08/22 05:20:02;;;;;;;;;;;35.70;29.30;;;;;;4358537;32;19989;-39
2021/08/22 05:22:28;;;;;;;;;;;35.60;29.00;;;;;;4358311;32;20004;-39
2021/08/22 05:24:54;;;;;;;;;;;35.60;29.10;;;;;;4358922;32;19962;-40
2021/08/22 05:27:21;;;;;;;;;;;35.60;29.20;;;;;;4361696;32;19976;-39
2021/08/22 05:29:47;;;;;;;;;;;35.70;29.10;;;;;;4361130;32;19958;-40
2021/08/22 05:32:13;;;;;;;;;;;35.80;28.80;;;;;;4360981;32;20354;-40
2021/08/22 05:34:39;;;;;;;;;;;36.00;28.60;;;;;;4361542;32;20091;-41
2021/08/22 05:37:05;;;;;;;;;;;36.30;28.30;;;;;;4361466;32;20012;-40
2021/08/22 05:39:32;;;;;;;;;;;36.50;27.80;;;;;;4361273;32;20402;-38
2021/08/22 05:41:58;;;;;;;;;;;36.70;26.80;;;;;;4361123;32;19966;-39
2021/08/22 05:44:24;;;;;;;;;;;37.00;26.20;;;;;;4361267;32;19965;-40
2021/08/22 05:46:50;;;;;;;;;;;37.20;25.40;;;;;;4361290;32;19954;-40
2021/08/22 05:49:16;;;;;;;;;;;37.60;25.10;;;;;;4361153;32;19946;-39
2021/08/22 05:51:45;;;;;;;;;;;38.00;24.90;;;;;;4361097;32;19961;-39
2021/08/22 05:54:11;;;;;;;;;;;38.50;24.60;;;;;;4359593;32;20071;-40
2021/08/22 05:56:37;;;;;;;;;;;38.90;23.90;;;;;;4361167;32;19946;-39
2021/08/22 05:59:03;;;;;;;;;;;39.30;23.90;;;;;;4359629;32;19992;-39
2021/08/22 06:01:31;;;;;;;;;;;39.60;23.50;;;;;;4360897;32;19973;-39
2021/08/22 06:03:57;;;;;;;;;;;39.80;23.40;;;;;;4360626;32;19958;-39
2021/08/22 06:06:23;;;;;;;;;;;40.10;23.40;;;;;;4361074;32;19990;-38
2021/08/22 06:08:49;;;;;;;;;;;40.30;23.10;;;;;;4360477;32;19962;-39
2021/08/22 06:11:16;;;;;;;;;;;40.60;22.80;;;;;;4361154;32;20067;-39
2021/08/22 06:13:42;;;;;;;;;;;40.90;22.70;;;;;;4360558;32;19958;-40
2021/08/22 06:16:08;;;;;;;;;;;41.10;22.70;;;;;;4360410;32;20095;-38
2021/08/22 06:18:34;;;;;;;;;;;41.30;22.70;;;;;;4373698;32;20070;-39
2021/08/22 06:21:00;;;;;;;;;;;41.40;22.60;;;;;;4375277;32;20560;-40
2021/08/22 06:23:26;;;;;;;;;;;41.50;22.60;;;;;;4375629;32;20395;-38
2021/08/22 06:25:53;;;;;;;;;;;41.70;22.50;;;;;;4375408;32;20030;-38
2021/08/22 06:28:19;;;;;;;;;;;41.90;22.50;;;;;;4375183;32;19969;-39
2021/08/22 06:30:45;;;;;;;;;;;42.10;22.40;;;;;;4374161;32;19965;-39
2021/08/22 06:33:11;;;;;;;;;;;42.20;22.50;;;;;;4360827;32;19965;-39
2021/08/22 06:35:37;;;;;;;;;;;42.30;22.60;;;;;;4360198;32;20362;-39
2021/08/22 06:38:04;;;;;;;;;;;42.50;22.60;;;;;;4360185;32;19950;-39
2021/08/22 06:40:30;;;;;;;;;;;42.60;22.60;;;;;;4346568;32;19961;-39
2021/08/22 06:42:56;;;;;;;;;;;42.80;22.60;;;;;;4359967;32;19960;-39
2021/08/22 06:45:22;;;;;;;;;;;42.90;22.80;;;;;;4360138;32;19981;-39
2021/08/22 06:47:53;;;;;;;;;;;43.00;23.00;;;;;;4360177;32;20043;-38
2021/08/22 06:50:21;;;;;;;;;;;43.20;23.10;;;;;;4360332;32;20043;-39
2021/08/22 06:52:47;;;;;;;;;;;43.50;23.20;;;;;;4360270;32;20463;-37
2021/08/22 06:55:13;;;;;;;;;;;43.70;23.30;;;;;;4360613;32;19950;-39
2021/08/22 06:57:39;;;;;;;;;;;43.80;23.20;;;;;;4359862;32;19969;-39
2021/08/22 07:00:06;;;;;;;;;;;44.00;23.30;;;;;;4360005;32;19966;-39
2021/08/22 07:02:32;;;;;;;;;;;44.10;23.30;;;;;;4358634;32;19980;-39
2021/08/22 07:04:58;;;;;;;;;;;44.20;23.40;;;;;;4359413;32;20493;-39
2021/08/22 07:07:24;;;;;;;;;;;44.40;23.10;;;;;;4359739;32;19964;-38
2021/08/22 07:09:51;;;;;;;;;;;44.50;23.10;;;;;;4359869;32;19954;-39
2021/08/22 07:12:17;;;;;;;;;;;44.60;22.90;;;;;;4359943;32;19996;-38
2021/08/22 07:14:43;;;;;;;;;;;44.70;22.90;;;;;;4359993;32;19957;-39
2021/08/22 07:17:09;;;;;;;;;;;44.80;22.70;;;;;;4359834;32;19958;-39
2021/08/22 07:19:37;;;;;;;;;;;44.90;22.40;;;;;;4359669;32;20022;-39
2021/08/22 07:22:04;;;;;;;;;;;45.00;22.40;;;;;;4360109;32;19954;-39
2021/08/22 07:24:30;;;;;;;;;;;45.10;22.30;;;;;;4359431;32;20429;-39
2021/08/22 07:26:56;;;;;;;;;;;45.10;22.20;;;;;;4359325;32;19961;-38
2021/08/22 07:29:22;;;;;;;;;;;45.10;22.20;;;;;;4359656;32;19961;-39
2021/08/22 07:31:48;;;;;;;;;;;45.10;22.20;;;;;;4359581;32;20030;-39
2021/08/22 07:34:14;;;;;;;;;;;45.20;22.30;;;;;;4358500;32;19968;-39
2021/08/22 07:36:41;;;;;;;;;;;45.30;22.90;;;;;;4359799;32;20051;-39
2021/08/22 07:39:07;;;;;;;;;;;45.30;22.30;;;;;;4359566;32;20033;-39
2021/08/22 07:41:33;;;;;;;;;;;45.20;22.10;;;;;;4359587;32;21964;-40
2021/08/22 07:43:59;;;;;;;;;;;45.20;22.10;;;;;;4359602;32;19962;-39
2021/08/22 07:46:25;;;;;;;;;;;45.20;22.20;;;;;;4359669;32;19993;-43
2021/08/22 07:48:51;;;;;;;;;;;45.20;22.30;;;;;;4358547;32;19965;-40
2021/08/22 07:51:18;;;;;;;;;;;45.20;22.30;;;;;;4359581;32;20039;-38
2021/08/22 07:53:44;;;;;;;;;;;45.20;22.30;;;;;;4359034;32;19957;-40
2021/08/22 07:56:10;;;;;;;;;;;45.10;22.90;;;;;;4359350;32;20484;-38
2021/08/22 07:58:36;;;;;;;;;;;45.20;22.30;;;;;;4359558;32;19978;-38
2021/08/22 08:01:02;;;;;;;;;;;45.20;22.30;;;;;;4358733;32;19980;-39
2021/08/22 08:03:28;;;;;;;;;;;45.30;22.30;;;;;;4358942;32;19980;-39
2021/08/22 08:05:55;;;;;;;;;;;45.30;22.30;;;;;;4359311;32;19964;-38
2021/08/22 08:08:22;;;;;;;;;;;45.50;22.30;;;;;;4358885;32;20033;-39
2021/08/22 08:10:49;;;;;;;;;;;45.50;22.20;;;;;;4358833;32;20425;-39
2021/08/22 08:13:15;;;;;;;;;;;45.50;22.20;;;;;;4359020;32;20004;-39
2021/08/22 08:15:42;;;;;;;;;;;45.50;22.10;;;;;;4358735;32;20001;-39
2021/08/22 08:18:09;;;;;;;;;;;45.60;22.20;;;;;;4357849;32;20001;-40
2021/08/22 08:20:35;;;;;;;;;;;45.50;22.20;;;;;;4358872;32;20001;-39
2021/08/22 08:23:02;;;;;;;;;;;45.60;22.20;;;;;;4358672;32;20381;-39
2021/08/22 08:25:28;;;;;;;;;;;45.50;22.20;;;;;;4357181;32;19985;-39
2021/08/22 08:27:54;;;;;;;;;;;45.50;22.30;;;;;;4358514;32;19985;-40
2021/08/22 08:30:20;;;;;;;;;;;45.50;22.50;;;;;;4358815;32;19965;-39
2021/08/22 08:32:46;;;;;;;;;;;45.50;22.50;;;;;;4358630;32;20058;-39
2021/08/22 08:35:13;;;;;;;;;;;45.50;22.50;;;;;;4358489;32;20504;-39
2021/08/22 08:37:40;;;;;;;;;;;45.50;22.40;;;;;;4358331;32;19954;-40
2021/08/22 08:40:16;;;;;;;;;;;45.50;22.30;;;;;;4358637;32;19961;-38
2021/08/22 08:42:52;;;;;;;;;;;45.50;22.20;;;;;;4358577;32;20452;-38
2021/08/22 08:45:58;;;;;;;;;;;45.60;22.20;;;;;;4358207;32;19957;-39
2021/08/22 08:48:27;;;;;;;;;;;45.80;22.20;;;;;;4340753;32;20034;-39
2021/08/22 08:51:30;;;;;;;;;;;45.90;22.10;;;;;;4344688;32;19961;-40
2021/08/22 08:54:09;;;;;;;;;;;46.20;22.20;;;;;;4358203;32;19980;-40
2021/08/22 08:56:38;;;;;;;;;;;46.30;22.00;;;;;;4358921;32;19958;-38
2021/08/22 08:59:04;;;;;;;;;;;46.40;21.80;;;;;;4358536;32;20414;-38
2021/08/22 09:01:30;;;;;;;;;;;46.50;21.80;;;;;;4358177;32;19981;-39
2021/08/22 09:04:27;;;;;;;;;;;46.60;21.80;;;;;;4358280;32;20044;-40
2021/08/22 09:07:20;;;;;;;;;;;46.60;21.60;;;;;;4358552;32;19973;-40
2021/08/22 09:10:23;;;;;;;;;;;46.70;21.60;;;;;;4358504;32;19997;-38
2021/08/22 09:13:14;;;;;;;;;;;46.60;21.90;;;;;;4358315;32;19954;-38
2021/08/22 09:15:43;;;;;;;;;;;46.60;21.90;;;;;;4358022;32;20378;-39
2021/08/22 09:18:47;;;;;;;;;;;46.50;21.80;;;;;;4358092;32;19989;-39
2021/08/22 09:21:55;;;;;;;;;;;46.30;22.00;;;;;;4358172;32;20412;-39
2021/08/22 09:24:58;;;;;;;;;;;46.30;22.30;;;;;;4342690;32;19954;-39
2021/08/22 09:28:02;;;;;;;;;;;46.10;22.60;;;;;;4358388;32;20056;-39
2021/08/22 09:30:50;;;;;;;;;;;46.00;22.90;;;;;;4358162;32;20403;-39
2021/08/22 09:33:54;;;;;;;;;;;45.70;23.50;;;;;;4357809;32;19998;-41
2021/08/22 09:36:23;;;;;;;;;;;45.30;23.70;;;;;;4357851;32;19965;-38
2021/08/22 09:39:24;;;;;;;;;;;45.00;23.90;;;;;;4358385;32;19949;-39
2021/08/22 09:42:24;;;;;;;;;;;44.70;23.80;;;;;;4358044;32;19953;-39
2021/08/22 09:45:27;;;;;;;;;;;44.50;23.90;;;;;;4357665;32;20447;-43
2021/08/22 09:48:31;;;;;;;;;;;44.20;23.90;;;;;;4358099;32;19965;-38
2021/08/22 09:51:35;;;;;;;;;;;44.00;24.00;;;;;;4358059;32;19969;-40
2021/08/22 09:54:20;;;;;;;;;;;43.70;24.30;;;;;;4358009;32;19966;-39
2021/08/22 09:56:52;;;;;;;;;;;43.60;24.70;;;;;;4357747;32;19973;-39
2021/08/22 09:59:40;;;;;;;;;;;43.30;24.80;;;;;;4357966;32;19958;-39
2021/08/22 10:02:11;;;;;;;;;;;43.20;25.00;;;;;;4357957;32;19961;-38
2021/08/22 10:04:47;;;;;;;;;;;43.00;25.10;;;;;;4357556;32;20523;-39
2021/08/22 10:07:47;;;;;;;;;;;42.80;25.00;;;;;;4357749;32;19981;-39
2021/08/22 10:10:16;;;;;;;;;;;42.70;24.90;;;;;;4357534;32;20064;-38
2021/08/22 10:12:42;;;;;;;;;;;42.60;25.00;;;;;;4359172;32;20425;-38
2021/08/22 10:15:10;;;;;;;;;;;42.50;25.00;;;;;;4360730;32;20342;-38
2021/08/22 10:17:36;;;;;;;;;;;42.30;24.90;;;;;;4346648;32;19985;-40
2021/08/22 10:20:02;;;;;;;;;;;42.20;25.10;;;;;;4346476;32;20436;-39
2021/08/22 10:22:36;;;;;;;;;;;42.20;25.10;;;;;;4360769;32;19961;-39
2021/08/22 10:25:11;;;;;;;;;;;42.20;25.30;;;;;;4360383;32;19953;-39
2021/08/22 10:27:40;;;;;;;;;;;42.20;25.40;;;;;;4360664;32;20018;-39
2021/08/22 10:30:07;;;;;;;;;;;42.20;25.50;;;;;;4360363;32;19997;-39
2021/08/22 10:32:33;;;;;;;;;;;42.20;25.40;;;;;;4360414;32;19966;-39
2021/08/22 10:35:12;;;;;;;;;;;42.20;25.40;;;;;;4359993;32;19969;-39
2021/08/22 10:37:42;;;;;;;;;;;42.20;25.70;;;;;;4360429;32;20051;-39
2021/08/22 10:40:28;;;;;;;;;;;42.20;25.80;;;;;;4360173;32;20448;-38
2021/08/22 10:42:57;;;;;;;;;;;42.20;25.70;;;;;;4360468;32;19958;-39
2021/08/22 10:45:42;;;;;;;;;;;42.40;25.90;;;;;;4360103;32;20430;-39
2021/08/22 10:48:09;;;;;;;;;;;42.60;25.80;;;;;;4360084;32;20039;-38
2021/08/22 10:51:02;;;;;;;;;;;42.90;25.70;;;;;;4359919;32;20041;-39
2021/08/22 10:53:35;;;;;;;;;;;43.00;25.50;;;;;;4360261;32;19946;-39
2021/08/22 10:56:23;;;;;;;;;;;43.10;25.40;;;;;;4360205;32;19954;-38
2021/08/22 10:58:58;;;;;;;;;;;43.30;25.40;;;;;;4359946;32;20035;-39
2021/08/22 11:01:25;;;;;;;;;;;43.50;25.40;;;;;;4359459;32;20369;-39
2021/08/22 11:04:04;;;;;;;;;;;43.60;25.50;;;;;;4359447;32;20094;-41
2021/08/22 11:06:30;;;;;;;;;;;43.50;25.40;;;;;;4359733;32;19961;-39
2021/08/22 11:08:56;;;;;;;;;;;43.40;25.40;;;;;;4360242;32;19965;-39
2021/08/22 11:11:23;;;;;;;;;;;43.20;25.40;;;;;;4359840;32;20473;-38
2021/08/22 11:13:56;;;;;;;;;;;43.10;25.60;;;;;;4360276;32;20407;-40
2021/08/22 11:16:38;;;;;;;;;;;42.90;25.80;;;;;;4359717;32;19996;-39
2021/08/22 11:19:05;;;;;;;;;;;42.70;26.50;;;;;;4374221;32;19969;-39
2021/08/22 11:21:31;;;;;;;;;;;42.50;25.90;;;;;;4374811;32;19977;-40
2021/08/22 11:23:58;;;;;;;;;;;42.40;26.00;;;;;;4360638;32;19960;-38
2021/08/22 11:26:25;;;;;;;;;;;42.20;25.80;;;;;;4374581;32;19962;-39
2021/08/22 11:28:55;;;;;;;;;;;42.10;25.60;;;;;;4374807;32;20375;-39
2021/08/22 11:31:22;;;;;;;;;;;42.00;25.70;;;;;;4374495;32;20034;-39
2021/08/22 11:33:48;;;;;;;;;;;41.90;25.80;;;;;;4374476;32;20081;-39
2021/08/22 11:36:14;;;;;;;;;;;41.80;25.80;;;;;;4359797;32;19949;-39
2021/08/22 11:38:40;;;;;;;;;;;41.80;25.80;;;;;;4374404;32;20018;-40
2021/08/22 11:41:06;;;;;;;;;;;41.70;25.70;;;;;;4360188;32;19960;-39
2021/08/22 11:43:32;;;;;;;;;;;41.70;25.80;;;;;;4360554;32;19953;-41
2021/08/22 11:45:59;;;;;;;;;;;41.70;26.00;;;;;;4374085;32;20045;-40
2021/08/22 11:48:25;;;;;;;;;;;41.60;25.90;;;;;;4374357;32;19984;-40
2021/08/22 11:50:52;;;;;;;;;;;41.40;25.90;;;;;;4359989;32;20029;-40
2021/08/22 11:53:18;;;;;;;;;;;41.40;26.00;;;;;;4359948;32;20406;-39
2021/08/22 11:55:45;;;;;;;;;;;41.20;26.10;;;;;;4359835;32;19965;-40
2021/08/22 11:58:19;;;;;;;;;;;41.20;25.90;;;;;;4348032;32;20061;-39
2021/08/22 12:00:47;;;;;;;;;;;41.10;25.90;;;;;;4374444;32;19981;-38
2021/08/22 12:03:14;;;;;;;;;;;41.10;26.10;;;;;;4373601;32;19965;-40
2021/08/22 12:05:55;;;;;;;;;;;41.10;26.20;;;;;;4373925;32;19976;-40
2021/08/22 12:08:21;;;;;;;;;;;41.10;26.20;;;;;;4374486;32;19964;-39
2021/08/22 12:10:47;;;;;;;;;;;41.00;25.90;;;;;;4374000;32;20073;-39
2021/08/22 12:13:14;;;;;;;;;;;41.00;25.80;;;;;;4359848;32;19965;-40
2021/08/22 12:15:41;;;;;;;;;;;40.80;25.80;;;;;;4359536;32;19996;-39
2021/08/22 12:18:26;;;;;;;;;;;40.80;25.80;;;;;;4373914;32;19973;-38
2021/08/22 12:20:54;;;;;;;;;;;40.70;25.60;;;;;;4373522;32;19973;-39
2021/08/22 12:23:29;;;;;;;;;;;40.70;25.50;;;;;;4373963;32;20390;-40
2021/08/22 12:25:55;;;;;;;;;;;40.60;25.50;;;;;;4373909;32;20065;-39
2021/08/22 12:28:28;;;;;;;;;;;40.50;25.50;;;;;;4373695;32;19965;-38
2021/08/22 12:31:06;;;;;;;;;;;40.50;25.40;;;;;;4371130;32;20008;-38
2021/08/22 12:33:36;;;;;;;;;;;40.50;25.50;;;;;;4358895;32;19966;-39
2021/08/22 12:36:07;;;;;;;;;;;40.50;25.80;;;;;;4358463;32;19962;-39
2021/08/22 12:38:35;;;;;;;;;;;40.50;25.90;;;;;;4358953;32;19990;-39
2021/08/22 12:41:24;;;;;;;;;;;40.40;25.90;;;;;;4359027;32;19961;-39
2021/08/22 12:43:50;;;;;;;;;;;40.30;25.60;;;;;;4358803;32;19961;-39
2021/08/22 12:46:17;;;;;;;;;;;40.30;25.50;;;;;;4359045;32;19964;-39
2021/08/22 12:48:46;;;;;;;;;;;40.30;25.60;;;;;;4358262;32;20422;-39
2021/08/22 12:51:12;;;;;;;;;;;40.10;25.50;;;;;;4358715;32;19957;-39
2021/08/22 12:53:38;;;;;;;;;;;40.10;25.40;;;;;;4358589;32;19981;-39
2021/08/22 12:56:05;;;;;;;;;;;40.10;25.40;;;;;;4344766;32;19984;-37
2021/08/22 12:58:31;;;;;;;;;;;40.10;26.00;;;;;;4357853;32;19966;-39
2021/08/22 13:00:57;;;;;;;;;;;40.10;26.30;;;;;;4358554;32;20395;-38
2021/08/22 13:03:24;;;;;;;;;;;40.10;26.30;;;;;;4358555;32;20380;-39
2021/08/22 13:05:50;;;;;;;;;;;40.00;26.20;;;;;;4358167;32;19966;-40
2021/08/22 13:08:16;;;;;;;;;;;40.00;26.40;;;;;;4358364;32;19969;-39
2021/08/22 13:10:43;;;;;;;;;;;39.90;26.30;;;;;;4358177;32;19958;-41
2021/08/22 13:13:09;;;;;;;;;;;39.80;26.10;;;;;;4358048;32;20044;-38
2021/08/22 13:15:35;;;;;;;;;;;39.70;25.50;;;;;;4357974;32;20366;-38
2021/08/22 13:18:01;;;;;;;;;;;39.70;25.60;;;;;;4357810;32;19962;-39
2021/08/22 13:20:28;;;;;;;;;;;39.60;26.10;;;;;;4332302;32;19969;-39
2021/08/22 13:22:56;;;;;;;;;;;39.50;26.40;;;;;;4358030;32;20038;-39
2021/08/22 13:25:22;;;;;;;;;;;39.40;26.90;;;;;;4358345;32;19961;-39
2021/08/22 13:27:48;;;;;;;;;;;39.40;27.00;;;;;;4358189;32;20411;-39
2021/08/22 13:30:14;;;;;;;;;;;39.30;27.20;;;;;;4358487;32;19970;-37
2021/08/22 13:32:40;;;;;;;;;;;39.20;27.30;;;;;;4358096;32;19970;-38
2021/08/22 13:35:07;;;;;;;;;;;39.20;27.20;;;;;;4358385;32;19950;-38
2021/08/22 13:37:33;;;;;;;;;;;39.10;26.30;;;;;;4357960;32;19954;-39
2021/08/22 13:39:59;;;;;;;;;;;39.10;26.30;;;;;;4358019;32;20386;-38
2021/08/22 13:42:25;;;;;;;;;;;39.00;26.90;;;;;;4358397;32;19958;-38
2021/08/22 13:44:52;;;;;;;;;;;38.90;27.50;;;;;;4358156;32;20339;-39
2021/08/22 13:47:18;;;;;;;;;;;38.80;27.80;;;;;;4357147;32;19961;-38
2021/08/22 13:49:44;;;;;;;;;;;38.70;27.90;;;;;;4360828;32;19958;-39
2021/08/22 13:52:10;;;;;;;;;;;38.50;28.30;;;;;;4360762;32;20014;-40
2021/08/22 13:54:36;;;;;;;;;;;38.40;28.50;;;;;;4361245;32;20026;-38
2021/08/22 13:57:03;;;;;;;;;;;38.40;28.50;;;;;;4360953;32;19957;-39
2021/08/22 13:59:29;;;;;;;;;;;38.20;28.30;;;;;;4361086;32;19965;-38
2021/08/22 14:01:56;;;;;;;;;;;38.20;28.40;;;;;;4360764;32;19954;-39
2021/08/22 14:04:22;;;;;;;;;;;38.10;28.50;;;;;;4360129;32;19968;-41
2021/08/22 14:06:48;;;;;;;;;;;38.00;29.00;;;;;;4360289;32;20062;-39
2021/08/22 14:09:14;;;;;;;;;;;38.00;28.40;;;;;;4360425;32;20051;-40
2021/08/22 14:11:41;;;;;;;;;;;37.90;28.40;;;;;;4360686;32;20429;-38
2021/08/22 14:14:07;;;;;;;;;;;37.80;28.50;;;;;;4361024;32;20366;-39
2021/08/22 14:16:33;;;;;;;;;;;37.70;28.50;;;;;;4360275;32;20415;-39
2021/08/22 14:18:59;;;;;;;;;;;37.70;28.20;;;;;;4374457;32;20508;-38
2021/08/22 14:21:26;;;;;;;;;;;37.60;28.20;;;;;;4375627;32;20090;-39
2021/08/22 14:23:52;;;;;;;;;;;37.60;28.30;;;;;;4375251;32;20024;-37
2021/08/22 14:26:18;;;;;;;;;;;37.50;28.70;;;;;;4375695;32;20027;-38
2021/08/22 14:28:44;;;;;;;;;;;37.50;29.00;;;;;;4374954;32;19966;-39